Time;durP1;ratioP1;P1;durP2;ratioP2;P2;SDS_P1;SDS_P2;PMS_P1;PMS_P2;Temp;Humidity;BMP_temperature;BMP_pressure;BME280_temperature;BME280_humidity;BME280_pressure;Samples;Min_cycle;Max_cycle;Signal;HPM_P1;HPM_P2
2023/11/14 08:33:43;;;;;;;7.75;5.70;;;;;;;;;;5937078;23;20237;-90
2023/11/14 08:36:09;;;;;;;7.18;5.35;;;;;;;;;;4956912;28;20130;-89
2023/11/14 08:38:37;;;;;;;9.07;5.75;;;;;;;;;;4957277;28;20501;-89
2023/11/14 09:35:10;;;;;;;7.57;5.70;;;;;;;;;;4959064;28;20113;-89
2023/11/14 09:37:36;;;;;;;7.63;5.38;;;;;;;;;;4959890;28;20057;-90
2023/11/14 09:40:04;;;;;;;9.60;5.60;;;;;;;;;;4959840;28;20026;-87
2023/11/14 12:34:30;;;;;;;6.03;4.80;;;;;;;;;;4934517;29;20123;-85
2023/11/14 12:37:09;;;;;;;5.97;4.20;;;;;;;;;;4936959;29;20047;-88
2023/11/14 12:39:35;;;;;;;4.82;4.32;;;;;;;;;;4938269;29;20108;-86
2023/11/14 12:42:01;;;;;;;6.75;5.88;;;;;;;;;;4939718;29;20043;-89
2023/11/14 12:44:27;;;;;;;5.95;5.20;;;;;;;;;;4939671;29;20032;-88
2023/11/14 12:46:56;;;;;;;8.27;4.63;;;;;;;;;;4939401;29;20027;-88
2023/11/14 17:01:03;;;;;;;19.50;13.10;;;;;;;;;;4955239;29;20055;-90
2023/11/14 17:03:29;;;;;;;20.63;13.88;;;;;;;;;;4958702;28;20490;-87
2023/11/14 17:05:54;;;;;;;26.95;18.90;;;;;;;;;;4958487;28;20062;-88
2023/11/14 17:08:20;;;;;;;42.30;29.30;;;;;;;;;;4958192;28;20051;-87
2023/11/14 17:10:45;;;;;;;43.80;26.63;;;;;;;;;;4958391;28;20492;-87
2023/11/14 17:13:11;;;;;;;41.15;24.17;;;;;;;;;;4956727;29;20545;-87
2023/11/14 17:15:36;;;;;;;24.30;16.45;;;;;;;;;;4958282;28;20425;-86
2023/11/14 17:18:03;;;;;;;21.25;14.02;;;;;;;;;;4956936;28;20411;-86
2023/11/14 17:20:29;;;;;;;22.23;14.70;;;;;;;;;;4958278;28;20083;-87
2023/11/14 17:22:57;;;;;;;20.77;14.73;;;;;;;;;;4957978;28;20027;-87
2023/11/14 18:51:53;;;;;;;20.88;14.70;;;;;;;;;;5356529;23;20145;-86
2023/11/14 18:54:19;;;;;;;22.30;14.88;;;;;;;;;;4954366;29;20127;-86
2023/11/14 18:56:44;;;;;;;26.42;15.85;;;;;;;;;;4954927;29;20043;-87
2023/11/14 18:59:09;;;;;;;22.38;15.25;;;;;;;;;;4956853;28;20495;-89
2023/11/14 19:01:36;;;;;;;23.88;14.98;;;;;;;;;;4958000;28;20034;-96
2023/11/14 19:04:02;;;;;;;25.83;17.33;;;;;;;;;;4958745;28;20501;-92
2023/11/14 19:06:29;;;;;;;27.38;16.98;;;;;;;;;;4960392;28;20035;-96
2023/11/14 19:08:55;;;;;;;22.15;15.38;;;;;;;;;;4957010;28;20024;-92
2023/11/14 19:11:20;;;;;;;23.90;16.10;;;;;;;;;;4957561;28;20030;-86
2023/11/14 19:13:46;;;;;;;23.38;15.68;;;;;;;;;;4959069;28;20450;-87
2023/11/14 19:16:13;;;;;;;28.48;19.45;;;;;;;;;;4960757;28;20034;-87
2023/11/14 19:18:40;;;;;;;32.67;20.85;;;;;;;;;;4956517;28;20039;-87
2023/11/14 19:21:06;;;;;;;29.88;21.13;;;;;;;;;;4958322;28;20047;-91
2023/11/14 19:23:32;;;;;;;30.90;20.20;;;;;;;;;;4959779;29;20023;-85
2023/11/14 19:25:57;;;;;;;34.67;21.15;;;;;;;;;;4959084;28;20093;-92
2023/11/14 19:28:23;;;;;;;32.47;20.58;;;;;;;;;;4957215;28;20541;-88
2023/11/14 19:30:49;;;;;;;31.23;19.25;;;;;;;;;;4956452;28;20031;-90
2023/11/14 19:33:14;;;;;;;31.25;20.60;;;;;;;;;;4956588;29;20030;-88
2023/11/14 19:35:40;;;;;;;31.95;21.02;;;;;;;;;;4959976;28;20038;-85
2023/11/14 19:38:05;;;;;;;32.65;20.65;;;;;;;;;;4966613;28;20027;-85
2023/11/14 19:40:31;;;;;;;28.15;19.65;;;;;;;;;;4956415;28;20035;-89
2023/11/14 19:42:57;;;;;;;30.40;21.38;;;;;;;;;;4956383;28;20031;-87
2023/11/14 19:45:23;;;;;;;32.88;23.13;;;;;;;;;;4955992;28;20030;-85
2023/11/14 19:47:48;;;;;;;35.92;24.45;;;;;;;;;;4954269;29;20037;-89
2023/11/14 19:50:14;;;;;;;36.75;23.75;;;;;;;;;;4955979;28;20028;-88
2023/11/14 19:52:40;;;;;;;41.53;26.67;;;;;;;;;;4960716;28;20089;-93
2023/11/14 19:55:08;;;;;;;41.63;26.20;;;;;;;;;;4975781;28;20060;-91
2023/11/14 19:57:34;;;;;;;48.28;29.23;;;;;;;;;;4975337;28;20039;-90
2023/11/14 20:00:05;;;;;;;44.72;29.73;;;;;;;;;;4974924;28;20378;-85
2023/11/14 20:02:31;;;;;;;45.08;30.38;;;;;;;;;;4975303;28;20029;-94
2023/11/14 20:04:56;;;;;;;44.65;27.60;;;;;;;;;;4957846;28;20027;-88
2023/11/14 20:07:23;;;;;;;41.42;27.25;;;;;;;;;;4975039;28;20031;-89
2023/11/14 20:09:51;;;;;;;41.70;26.08;;;;;;;;;;4974531;28;20043;-85
2023/11/14 20:12:18;;;;;;;35.70;25.92;;;;;;;;;;4975085;28;20031;-88
2023/11/14 20:14:43;;;;;;;38.83;26.52;;;;;;;;;;4974696;28;20027;-85
2023/11/14 20:17:08;;;;;;;38.08;24.77;;;;;;;;;;4974551;28;20045;-84
2023/11/14 20:19:34;;;;;;;33.00;21.02;;;;;;;;;;4974841;28;20030;-85
2023/11/14 20:21:59;;;;;;;38.70;26.98;;;;;;;;;;4974489;28;20410;-86
2023/11/14 20:24:25;;;;;;;41.17;28.67;;;;;;;;;;4974704;28;20051;-86
2023/11/14 20:26:51;;;;;;;49.05;27.90;;;;;;;;;;4957312;28;20026;-86
2023/11/14 20:29:17;;;;;;;42.17;28.65;;;;;;;;;;4974478;28;20023;-86
2023/11/14 20:31:42;;;;;;;43.83;28.05;;;;;;;;;;4957156;28;20031;-89
2023/11/14 20:34:08;;;;;;;46.13;29.65;;;;;;;;;;4957044;28;20107;-88
2023/11/14 20:36:34;;;;;;;42.25;28.48;;;;;;;;;;4957382;28;20046;-86
2023/11/14 20:39:00;;;;;;;40.03;26.27;;;;;;;;;;4974529;28;20031;-86
2023/11/14 20:41:26;;;;;;;40.30;25.00;;;;;;;;;;4974482;28;20023;-88
2023/11/14 20:43:52;;;;;;;35.22;24.13;;;;;;;;;;4974930;28;20023;-87
2023/11/14 20:46:17;;;;;;;37.25;25.30;;;;;;;;;;4974275;28;20035;-84
2023/11/14 20:48:43;;;;;;;44.92;27.75;;;;;;;;;;4974232;28;20026;-86
2023/11/14 20:51:08;;;;;;;41.42;26.67;;;;;;;;;;4974186;28;20034;-87
2023/11/14 20:53:34;;;;;;;40.15;27.10;;;;;;;;;;4974263;28;20564;-86
2023/11/14 20:56:00;;;;;;;41.72;25.92;;;;;;;;;;4974321;28;20420;-85
2023/11/14 20:58:25;;;;;;;38.65;26.10;;;;;;;;;;4976193;28;20385;-87
2023/11/14 21:00:51;;;;;;;40.38;25.30;;;;;;;;;;4977967;28;20106;-85
2023/11/14 21:03:21;;;;;;;36.60;24.52;;;;;;;;;;4960186;28;20058;-86
2023/11/14 21:05:47;;;;;;;35.60;24.00;;;;;;;;;;4977776;28;20061;-85
2023/11/14 21:08:13;;;;;;;35.35;22.77;;;;;;;;;;4977686;28;20054;-88
2023/11/14 21:10:38;;;;;;;32.58;22.02;;;;;;;;;;4977874;28;20030;-87
2023/11/14 21:13:04;;;;;;;34.00;21.50;;;;;;;;;;4977581;28;20054;-86
2023/11/14 21:15:29;;;;;;;33.65;22.30;;;;;;;;;;4977769;28;20030;-86
2023/11/14 21:17:55;;;;;;;29.42;20.05;;;;;;;;;;4977290;28;20031;-85
2023/11/14 21:20:20;;;;;;;27.63;17.33;;;;;;;;;;4977426;28;20158;-87
2023/11/14 21:22:47;;;;;;;23.98;15.40;;;;;;;;;;4977677;28;20031;-87
2023/11/14 21:25:12;;;;;;;29.38;20.13;;;;;;;;;;4977286;28;20038;-86
2023/11/14 21:27:38;;;;;;;29.25;18.52;;;;;;;;;;4975715;28;20031;-86
2023/11/14 21:30:04;;;;;;;22.85;14.48;;;;;;;;;;4977195;28;20038;-92
2023/11/14 21:32:31;;;;;;;21.27;14.85;;;;;;;;;;4977146;28;20019;-90
2023/11/14 21:35:00;;;;;;;25.20;17.55;;;;;;;;;;4977190;28;20030;-85
2023/11/14 21:37:25;;;;;;;27.80;16.95;;;;;;;;;;4977106;28;20034;-86
2023/11/14 21:39:51;;;;;;;27.33;18.58;;;;;;;;;;4977418;28;20035;-87
2023/11/14 21:42:16;;;;;;;25.48;16.25;;;;;;;;;;4977650;28;20033;-86
2023/11/14 21:44:42;;;;;;;30.05;19.27;;;;;;;;;;4976809;28;20062;-86
2023/11/14 21:47:07;;;;;;;31.63;21.83;;;;;;;;;;4977000;28;20030;-88
2023/11/14 21:49:37;;;;;;;32.33;19.48;;;;;;;;;;4954860;29;20124;-85
2023/11/14 21:52:04;;;;;;;26.67;17.55;;;;;;;;;;4957821;29;20070;-88
2023/11/14 21:54:29;;;;;;;23.48;16.33;;;;;;;;;;4940250;29;20463;-86
2023/11/14 21:56:55;;;;;;;20.08;13.75;;;;;;;;;;4957480;29;20067;-86
2023/11/14 21:59:20;;;;;;;25.33;16.10;;;;;;;;;;4940333;29;20489;-86
2023/11/14 22:01:46;;;;;;;25.73;15.50;;;;;;;;;;4957357;28;20030;-86
2023/11/14 22:04:11;;;;;;;23.85;15.70;;;;;;;;;;4957639;29;20382;-86
2023/11/14 22:06:36;;;;;;;22.85;14.70;;;;;;;;;;4958755;28;20023;-85
2023/11/14 22:09:03;;;;;;;21.77;13.25;;;;;;;;;;4957276;28;20054;-86
2023/11/14 22:11:28;;;;;;;20.75;15.57;;;;;;;;;;4957189;29;20067;-86
2023/11/14 22:13:54;;;;;;;25.58;16.85;;;;;;;;;;4940115;29;20062;-85
2023/11/14 22:16:19;;;;;;;26.10;18.65;;;;;;;;;;4957111;28;20489;-85
2023/11/14 22:18:45;;;;;;;30.13;19.45;;;;;;;;;;4957546;29;20538;-86
2023/11/14 22:21:10;;;;;;;30.77;18.70;;;;;;;;;;4939723;29;20123;-85
2023/11/14 22:23:36;;;;;;;28.20;17.73;;;;;;;;;;4957026;29;20027;-86
2023/11/14 22:26:03;;;;;;;25.23;17.45;;;;;;;;;;4957090;29;20027;-87
2023/11/14 22:28:29;;;;;;;24.98;17.23;;;;;;;;;;4956908;29;20039;-85
2023/11/14 22:30:54;;;;;;;24.17;17.33;;;;;;;;;;4957135;28;20090;-85
2023/11/14 22:33:20;;;;;;;30.08;18.88;;;;;;;;;;4956917;28;20424;-84
2023/11/14 22:35:45;;;;;;;29.50;19.13;;;;;;;;;;4956965;29;20027;-86
2023/11/14 22:38:11;;;;;;;31.85;19.05;;;;;;;;;;4956644;28;20024;-86
2023/11/14 22:40:38;;;;;;;26.40;18.85;;;;;;;;;;4956877;29;20023;-85
2023/11/14 22:43:04;;;;;;;26.80;16.80;;;;;;;;;;4956744;29;20034;-85
2023/11/14 22:45:30;;;;;;;24.58;16.65;;;;;;;;;;4956584;29;20031;-85
2023/11/14 22:47:55;;;;;;;23.55;16.42;;;;;;;;;;4956585;28;20348;-86
2023/11/14 22:50:21;;;;;;;27.42;19.08;;;;;;;;;;4956416;28;20418;-85
2023/11/14 22:52:47;;;;;;;30.42;20.38;;;;;;;;;;4956495;29;20039;-85
2023/11/14 22:55:13;;;;;;;76.22;45.15;;;;;;;;;;4939427;29;20031;-85
2023/11/14 22:57:38;;;;;;;50.05;31.15;;;;;;;;;;4956156;28;20467;-85
2023/11/14 23:00:18;;;;;;;42.78;27.15;;;;;;;;;;4956112;28;20023;-84
2023/11/14 23:02:45;;;;;;;40.45;27.00;;;;;;;;;;4939041;29;20028;-84
2023/11/14 23:05:10;;;;;;;47.70;31.27;;;;;;;;;;4956385;28;20035;-84
2023/11/14 23:07:36;;;;;;;29.90;19.38;;;;;;;;;;4956382;29;20035;-84
2023/11/14 23:10:02;;;;;;;26.13;16.88;;;;;;;;;;4961796;28;20481;-87
2023/11/14 23:12:28;;;;;;;35.45;22.17;;;;;;;;;;4975604;28;20410;-86
2023/11/14 23:14:54;;;;;;;73.85;45.60;;;;;;;;;;4958498;28;20029;-86
2023/11/14 23:17:19;;;;;;;118.50;63.58;;;;;;;;;;4957987;28;20034;-84
2023/11/14 23:19:45;;;;;;;44.10;28.05;;;;;;;;;;4975248;28;20019;-85
2023/11/14 23:22:11;;;;;;;47.20;27.63;;;;;;;;;;4957818;28;20035;-86
2023/11/14 23:24:36;;;;;;;37.40;24.85;;;;;;;;;;4975449;28;20101;-86
2023/11/14 23:27:02;;;;;;;39.25;23.50;;;;;;;;;;4975423;28;20466;-86
2023/11/14 23:29:27;;;;;;;30.00;21.10;;;;;;;;;;4975320;28;20468;-85
2023/11/14 23:31:52;;;;;;;33.30;20.70;;;;;;;;;;4975067;28;20519;-85
2023/11/14 23:34:18;;;;;;;33.50;22.33;;;;;;;;;;4975249;28;20072;-86
2023/11/14 23:36:43;;;;;;;39.17;25.38;;;;;;;;;;4975515;28;20090;-92
